createdAt,value
2022-12-17T00:00:01.668Z,59.95
2022-12-17T00:02:47.506Z,60.08
2022-12-17T00:05:33.815Z,59.74
2022-12-17T00:08:20.816Z,60.14
2022-12-17T00:11:06.491Z,60.40
2022-12-17T00:13:52.213Z,60.53
2022-12-17T00:16:37.713Z,60.55
2022-12-17T00:19:23.321Z,60.42
2022-12-17T00:22:08.768Z,60.20
2022-12-17T00:24:56.544Z,60.46
2022-12-17T00:27:42.053Z,60.34
2022-12-17T00:30:28.601Z,60.19
2022-12-17T00:33:14.245Z,60.07
2022-12-17T00:36:00.512Z,60.14
2022-12-17T00:38:45.933Z,60.04
2022-12-17T00:41:32.893Z,59.81
2022-12-17T00:44:18.713Z,60.27
2022-12-17T00:47:04.985Z,60.09
2022-12-17T00:49:50.792Z,60.09
2022-12-17T00:52:37.855Z,60.18
2022-12-17T00:55:24.812Z,60.07
2022-12-17T00:58:14.383Z,59.95
2022-12-17T01:01:15.792Z,59.84
2022-12-17T01:04:01.574Z,59.97
2022-12-17T01:06:47.580Z,59.90
2022-12-17T01:09:47.690Z,59.84
2022-12-17T01:12:33.443Z,59.83
2022-12-17T01:15:20.868Z,59.34
2022-12-17T01:18:06.305Z,59.37
2022-12-17T01:20:48.354Z,59.26
2022-12-17T01:23:34.020Z,59.24
2022-12-17T01:26:20.074Z,59.36
2022-12-17T01:29:05.838Z,59.50
2022-12-17T01:31:49.392Z,59.21
2022-12-17T01:34:35.486Z,59.45
2022-12-17T01:37:20.934Z,59.76
2022-12-17T01:40:06.691Z,59.05
2022-12-17T01:43:00.575Z,58.82
2022-12-17T01:45:47.515Z,59.04
2022-12-17T01:48:36.072Z,59.20
2022-12-17T01:51:23.135Z,59.13
2022-12-17T01:54:11.350Z,59.34
2022-12-17T01:57:00.695Z,59.57
2022-12-17T01:59:57.599Z,59.02
2022-12-17T02:02:43.709Z,59.71
2022-12-17T02:05:30.764Z,59.38
2022-12-17T02:08:24.897Z,59.87
2022-12-17T02:11:19.357Z,59.94
2022-12-17T02:14:17.023Z,59.77
2022-12-17T02:17:09.684Z,60.13
2022-12-17T02:20:13.504Z,60.15
2022-12-17T02:23:09.062Z,60.24
2022-12-17T02:26:01.914Z,60.04
2022-12-17T02:28:49.999Z,60.38
2022-12-17T02:31:36.931Z,59.95
2022-12-17T02:34:22.422Z,59.85
2022-12-17T02:37:07.896Z,60.00
2022-12-17T02:39:53.604Z,60.00
2022-12-17T02:42:44.269Z,60.63
2022-12-17T02:45:31.529Z,60.15
2022-12-17T02:48:18.941Z,60.19
2022-12-17T02:51:04.834Z,59.68
2022-12-17T02:53:51.661Z,59.79
2022-12-17T02:56:37.260Z,59.62
2022-12-17T02:59:22.555Z,59.76
2022-12-17T03:02:09.816Z,59.78
2022-12-17T03:04:55.878Z,59.86
2022-12-17T03:07:41.580Z,59.64
2022-12-17T03:10:27.856Z,60.09
2022-12-17T03:13:13.431Z,59.77
2022-12-17T03:15:59.116Z,59.68
2022-12-17T03:18:46.513Z,59.52
2022-12-17T03:21:31.911Z,59.77
2022-12-17T03:24:17.528Z,59.72
2022-12-17T03:27:03.353Z,59.83
2022-12-17T03:30:03.303Z,59.54
2022-12-17T03:32:49.167Z,59.18
2022-12-17T03:35:36.366Z,59.04
2022-12-17T03:38:26.844Z,58.98
2022-12-17T03:41:12.434Z,59.06
2022-12-17T03:43:57.841Z,58.88
2022-12-17T03:46:43.556Z,59.13
2022-12-17T03:49:29.165Z,58.98
2022-12-17T03:52:16.518Z,58.69
2022-12-17T03:55:02.087Z,59.00
2022-12-17T03:57:47.775Z,59.01
2022-12-17T04:00:33.938Z,58.74
2022-12-17T04:03:19.461Z,58.91
2022-12-17T04:06:05.015Z,58.30
2022-12-17T04:08:52.140Z,58.62
2022-12-17T04:11:38.059Z,58.90
2022-12-17T04:14:23.640Z,58.42
2022-12-17T04:17:09.069Z,58.71
2022-12-17T04:19:54.727Z,58.52
2022-12-17T04:22:40.254Z,58.53
2022-12-17T04:25:27.435Z,58.29
2022-12-17T04:28:13.212Z,58.48
2022-12-17T04:30:58.748Z,58.67
2022-12-17T04:33:44.253Z,58.20
2022-12-17T04:36:29.717Z,58.20
2022-12-17T04:39:15.377Z,58.40
2022-12-17T04:42:02.780Z,57.97
2022-12-17T04:44:48.499Z,58.03
2022-12-17T04:47:34.296Z,58.26
2022-12-17T04:50:25.078Z,58.20
2022-12-17T04:53:18.742Z,57.86
2022-12-17T04:56:04.120Z,58.17
2022-12-17T04:58:51.266Z,57.70
2022-12-17T05:01:33.495Z,58.08
2022-12-17T05:04:19.128Z,58.07
2022-12-17T05:07:10.352Z,57.81
2022-12-17T05:09:55.968Z,57.95
2022-12-17T05:12:41.503Z,57.84
2022-12-17T05:15:29.325Z,57.79
2022-12-17T05:18:23.818Z,57.47
2022-12-17T05:21:09.311Z,57.37
2022-12-17T05:23:55.280Z,57.68
2022-12-17T05:26:42.937Z,58.08
2022-12-17T05:29:29.043Z,58.00
2022-12-17T05:32:16.671Z,57.78
2022-12-17T05:35:02.363Z,57.60
2022-12-17T05:37:48.184Z,57.40
2022-12-17T05:40:34.155Z,57.64
2022-12-17T05:43:21.742Z,57.42
2022-12-17T05:46:07.912Z,57.73
2022-12-17T05:48:55.555Z,57.36
2022-12-17T05:51:41.667Z,57.71
2022-12-17T05:54:27.651Z,57.43
2022-12-17T05:57:13.173Z,57.78
2022-12-17T05:59:58.860Z,57.79
2022-12-17T06:02:47.249Z,57.65
2022-12-17T06:05:34.308Z,57.99
2022-12-17T06:08:23.397Z,57.93
2022-12-17T06:11:08.847Z,57.54
2022-12-17T06:13:54.546Z,57.75
2022-12-17T06:16:40.647Z,57.64
2022-12-17T06:19:26.285Z,57.61
2022-12-17T06:22:13.012Z,57.71
2022-12-17T06:24:58.869Z,57.60
2022-12-17T06:27:44.565Z,57.62
2022-12-17T06:30:31.065Z,57.89
2022-12-17T06:33:23.155Z,57.45
2022-12-17T06:36:12.645Z,57.54
2022-12-17T06:39:03.198Z,57.48
2022-12-17T06:41:48.651Z,57.92
2022-12-17T06:44:34.381Z,57.61
2022-12-17T06:47:20.002Z,57.41
2022-12-17T06:50:05.719Z,57.69
2022-12-17T06:52:51.237Z,57.53
2022-12-17T06:55:38.258Z,57.34
2022-12-17T06:58:23.684Z,57.27
2022-12-17T07:01:11.147Z,57.14
2022-12-17T07:03:56.570Z,57.26
2022-12-17T07:06:42.403Z,57.33
2022-12-17T07:09:28.296Z,57.19
2022-12-17T07:12:29.869Z,57.41
2022-12-17T07:15:15.749Z,56.79
2022-12-17T07:18:01.310Z,57.24
2022-12-17T07:20:46.829Z,57.12
2022-12-17T07:23:32.568Z,56.97
2022-12-17T07:26:18.009Z,57.35
2022-12-17T07:29:05.327Z,57.58
2022-12-17T07:31:50.848Z,57.63
2022-12-17T07:34:36.415Z,57.97
2022-12-17T07:37:21.978Z,57.67
2022-12-17T07:40:07.319Z,57.62
2022-12-17T07:42:52.761Z,57.77
2022-12-17T07:45:40.294Z,57.21
2022-12-17T07:48:26.819Z,57.30
2022-12-17T07:51:12.634Z,57.31
2022-12-17T07:53:58.636Z,57.43
2022-12-17T07:56:43.378Z,57.10
2022-12-17T07:59:28.990Z,57.28
2022-12-17T08:02:16.462Z,56.86
2022-12-17T08:05:02.665Z,57.27
2022-12-17T08:07:48.637Z,57.08
2022-12-17T08:10:35.008Z,57.07
2022-12-17T08:13:22.275Z,57.16
2022-12-17T08:16:11.139Z,57.14
2022-12-17T08:18:58.479Z,57.12
2022-12-17T08:21:44.014Z,57.43
2022-12-17T08:24:29.948Z,57.37
2022-12-17T08:27:15.752Z,57.25
2022-12-17T08:30:01.322Z,57.20
2022-12-17T08:32:47.210Z,57.38
2022-12-17T08:35:34.463Z,57.30
2022-12-17T08:38:20.930Z,57.11
2022-12-17T08:41:06.346Z,57.17
2022-12-17T08:43:51.929Z,57.16
2022-12-17T08:46:37.622Z,57.42
2022-12-17T08:49:23.348Z,57.03
2022-12-17T08:52:10.787Z,57.28
2022-12-17T08:54:56.596Z,57.12
2022-12-17T08:57:42.038Z,57.20
2022-12-17T09:00:30.381Z,57.04
2022-12-17T09:03:16.998Z,57.22
2022-12-17T09:06:03.211Z,57.51
2022-12-17T09:08:50.657Z,57.61
2022-12-17T09:11:36.570Z,57.51
2022-12-17T09:14:22.316Z,57.72
2022-12-17T09:17:08.165Z,57.20
2022-12-17T09:19:53.971Z,57.59
2022-12-17T09:22:39.796Z,57.41
2022-12-17T09:25:27.435Z,57.80
2022-12-17T09:28:12.987Z,57.67
2022-12-17T09:30:58.485Z,57.58
2022-12-17T09:33:55.575Z,57.60
2022-12-17T09:36:44.234Z,57.69
2022-12-17T09:39:32.138Z,57.70
2022-12-17T09:42:44.390Z,57.78
2022-12-17T09:45:37.320Z,57.72
2022-12-17T09:48:32.634Z,57.64
2022-12-17T09:51:18.753Z,57.68
2022-12-17T09:54:11.941Z,57.68
2022-12-17T09:57:01.148Z,57.99
2022-12-17T09:59:52.772Z,58.04
2022-12-17T10:02:43.197Z,57.89
2022-12-17T10:05:34.008Z,58.11
2022-12-17T10:08:23.114Z,57.58
2022-12-17T10:11:08.560Z,58.18
2022-12-17T10:13:54.236Z,58.00
2022-12-17T10:16:45.216Z,58.24
2022-12-17T10:19:34.588Z,58.29
2022-12-17T10:22:31.574Z,58.16
2022-12-17T10:25:20.795Z,57.82
2022-12-17T10:28:06.331Z,57.72
2022-12-17T10:30:52.096Z,57.78
2022-12-17T10:33:40.405Z,57.73
2022-12-17T10:36:39.507Z,57.54
2022-12-17T10:39:31.500Z,57.60
2022-12-17T10:42:17.117Z,57.59
2022-12-17T10:45:02.566Z,57.70
2022-12-17T10:47:48.204Z,57.52
2022-12-17T10:50:36.921Z,57.32
2022-12-17T10:53:34.482Z,57.74
2022-12-17T10:56:20.880Z,57.54
2022-12-17T10:59:12.226Z,57.41
2022-12-17T11:01:59.356Z,57.15
2022-12-17T11:04:47.452Z,57.03
2022-12-17T11:07:40.674Z,56.71
2022-12-17T11:10:34.556Z,57.04
2022-12-17T11:13:26.393Z,56.76
2022-12-17T11:16:14.657Z,56.82
2022-12-17T11:19:15.678Z,57.13
2022-12-17T11:22:12.239Z,56.79
2022-12-17T11:25:03.712Z,56.80
2022-12-17T11:27:55.791Z,57.02
2022-12-17T11:30:41.884Z,56.75
2022-12-17T11:33:35.683Z,56.55
2022-12-17T11:36:36.806Z,56.37
2022-12-17T11:39:29.943Z,56.23
2022-12-17T11:42:23.446Z,55.93
2022-12-17T11:45:23.580Z,56.14
2022-12-17T11:48:17.220Z,55.52
2022-12-17T11:51:08.707Z,55.13
2022-12-17T11:54:06.164Z,55.70
2022-12-17T11:56:56.853Z,55.19
2022-12-17T11:59:52.923Z,55.14
2022-12-17T12:03:03.908Z,55.08
2022-12-17T12:06:02.591Z,55.05
2022-12-17T12:08:50.369Z,55.15
2022-12-17T12:11:49.033Z,54.74
2022-12-17T12:14:47.516Z,55.11
2022-12-17T12:17:49.575Z,54.31
2022-12-17T12:20:52.870Z,54.99
2022-12-17T12:23:48.268Z,54.50
2022-12-17T12:26:36.549Z,54.81
2022-12-17T12:29:28.972Z,54.59
2022-12-17T12:32:22.068Z,54.91
2022-12-17T12:35:10.872Z,54.45
2022-12-17T12:37:56.824Z,54.46
2022-12-17T12:40:50.618Z,54.66
2022-12-17T12:43:41.023Z,54.42
2022-12-17T12:46:35.115Z,54.98
2022-12-17T12:49:37.213Z,54.70
2022-12-17T12:52:24.786Z,54.26
2022-12-17T12:55:12.068Z,54.06
2022-12-17T12:58:01.097Z,54.33
2022-12-17T13:00:55.831Z,53.85
2022-12-17T13:03:47.850Z,53.78
2022-12-17T13:06:37.887Z,53.88
2022-12-17T13:09:20.946Z,53.66
2022-12-17T13:11:51.729Z,54.14
2022-12-17T13:14:24.015Z,54.22
2022-12-17T13:16:56.490Z,53.82
2022-12-17T13:19:37.147Z,53.95
2022-12-17T13:22:13.352Z,53.53
2022-12-17T13:24:44.271Z,53.80
2022-12-17T13:27:30.919Z,53.53
2022-12-17T13:30:00.953Z,54.25
2022-12-17T13:32:34.382Z,54.24
2022-12-17T13:35:19.187Z,54.13
2022-12-17T13:37:57.303Z,54.53
2022-12-17T13:40:40.849Z,53.94
2022-12-17T13:43:18.009Z,54.36
2022-12-17T13:45:46.920Z,54.36
2022-12-17T13:48:22.737Z,54.29
2022-12-17T13:50:59.880Z,54.62
2022-12-17T13:53:29.799Z,54.34
2022-12-17T13:55:59.791Z,54.30
2022-12-17T13:58:30.631Z,54.24
2022-12-17T14:01:09.700Z,54.48
2022-12-17T14:06:31.109Z,54.23
2022-12-17T14:09:00.364Z,54.63
2022-12-17T14:11:49.012Z,53.96
2022-12-17T14:14:32.292Z,54.40
2022-12-17T14:17:01.094Z,54.43
2022-12-17T14:19:31.040Z,54.74
2022-12-17T14:21:59.842Z,54.56
2022-12-17T14:24:29.805Z,54.71
2022-12-17T14:27:01.151Z,54.50
2022-12-17T14:29:31.331Z,54.59
2022-12-17T14:32:01.686Z,54.29
2022-12-17T14:34:31.150Z,54.93
2022-12-17T14:37:01.670Z,54.58
2022-12-17T14:39:31.937Z,54.51
2022-12-17T14:42:30.021Z,54.81
2022-12-17T14:45:00.805Z,54.56
2022-12-17T14:47:31.065Z,55.11
2022-12-17T14:50:06.257Z,55.09
2022-12-17T14:52:43.458Z,55.04
2022-12-17T14:55:33.326Z,55.17
2022-12-17T14:58:18.717Z,54.70
2022-12-17T15:00:50.860Z,55.09
2022-12-17T15:03:22.604Z,54.87
2022-12-17T15:05:54.834Z,54.82
2022-12-17T15:08:23.837Z,54.75
2022-12-17T15:10:52.387Z,54.35
2022-12-17T15:13:22.267Z,54.98
2022-12-17T15:15:50.593Z,54.74
2022-12-17T15:18:18.990Z,54.57
2022-12-17T15:20:47.400Z,54.54
2022-12-17T15:23:18.085Z,54.80
2022-12-17T15:25:47.308Z,54.79
2022-12-17T15:28:19.491Z,54.78
2022-12-17T15:30:51.188Z,55.16
2022-12-17T15:33:19.735Z,54.80
2022-12-17T15:35:48.275Z,54.90
2022-12-17T15:38:16.651Z,55.18
2022-12-17T15:40:44.973Z,55.14
2022-12-17T15:43:13.156Z,55.09
2022-12-17T15:45:42.865Z,54.97
2022-12-17T15:48:13.984Z,55.11
2022-12-17T15:50:42.426Z,55.15
2022-12-17T15:53:11.730Z,55.26
2022-12-17T15:55:40.804Z,55.10
2022-12-17T15:58:11.511Z,55.10
2022-12-17T16:00:40.041Z,55.43
2022-12-17T16:03:08.655Z,55.21
2022-12-17T16:05:38.758Z,55.07
2022-12-17T16:08:07.892Z,55.39
2022-12-17T16:10:36.498Z,55.28
2022-12-17T16:13:05.448Z,55.37
2022-12-17T16:15:33.936Z,55.47
2022-12-17T16:18:02.428Z,55.51
2022-12-17T16:20:30.852Z,55.41
2022-12-17T16:23:01.297Z,55.14
2022-12-17T16:25:30.123Z,55.46
2022-12-17T16:27:58.578Z,55.15
2022-12-17T16:30:27.001Z,55.35
2022-12-17T16:32:55.430Z,55.52
2022-12-17T16:35:25.122Z,55.40
2022-12-17T16:37:53.702Z,55.52
2022-12-17T16:40:23.545Z,55.41
2022-12-17T16:42:51.952Z,55.42
2022-12-17T16:45:20.414Z,55.71
2022-12-17T16:47:48.934Z,55.52
2022-12-17T16:50:17.504Z,55.61
2022-12-17T16:52:46.287Z,55.45
2022-12-17T16:55:14.617Z,55.63
2022-12-17T16:57:44.599Z,55.64
2022-12-17T17:00:13.933Z,55.68
2022-12-17T17:02:42.407Z,55.74
2022-12-17T17:05:11.257Z,55.79
2022-12-17T17:07:40.137Z,55.71
2022-12-17T17:10:09.122Z,55.64
2022-12-17T17:12:37.471Z,55.76
2022-12-17T17:15:08.701Z,55.95
2022-12-17T17:17:53.880Z,55.86
2022-12-17T17:20:24.693Z,56.04
2022-12-17T17:22:53.004Z,55.81
2022-12-17T17:25:21.458Z,55.76
2022-12-17T17:27:49.803Z,55.99
2022-12-17T17:30:19.773Z,55.66
2022-12-17T17:32:48.245Z,55.84
2022-12-17T17:35:16.861Z,55.89
2022-12-17T17:37:45.172Z,56.05
2022-12-17T17:40:14.880Z,55.93
2022-12-17T17:42:46.145Z,55.88
2022-12-17T17:45:20.000Z,55.72
2022-12-17T17:47:48.676Z,55.81
2022-12-17T17:50:17.021Z,55.65
2022-12-17T17:52:45.459Z,55.95
2022-12-17T17:55:13.777Z,55.62
2022-12-17T17:57:42.091Z,55.74
2022-12-17T18:00:11.909Z,56.00
2022-12-17T18:02:42.278Z,55.85
2022-12-17T18:05:11.411Z,55.65
2022-12-17T18:07:40.048Z,55.78
2022-12-17T18:10:09.605Z,55.68
2022-12-17T18:12:55.580Z,55.88
2022-12-17T18:15:23.837Z,55.81
2022-12-17T18:17:53.712Z,55.79
2022-12-17T18:20:22.068Z,56.16
2022-12-17T18:22:50.684Z,55.81
2022-12-17T18:25:19.414Z,55.92
2022-12-17T18:27:47.969Z,55.90
2022-12-17T18:30:17.234Z,55.76
2022-12-17T18:32:45.720Z,55.90
2022-12-17T18:35:15.496Z,55.69
2022-12-17T18:37:43.929Z,55.73
2022-12-17T18:40:13.003Z,55.85
2022-12-17T18:42:58.893Z,56.12
2022-12-17T18:45:27.345Z,55.80
2022-12-17T18:47:55.868Z,55.82
2022-12-17T18:50:25.676Z,56.04
2022-12-17T18:52:54.050Z,56.04
2022-12-17T18:55:22.403Z,55.90
2022-12-17T18:57:50.751Z,55.77
2022-12-17T19:00:19.456Z,56.11
2022-12-17T19:02:47.903Z,55.89
2022-12-17T19:05:16.710Z,55.80
2022-12-17T19:07:46.514Z,55.56
2022-12-17T19:10:14.862Z,55.59
2022-12-17T19:12:43.249Z,55.78
2022-12-17T19:15:12.113Z,56.14
2022-12-17T19:17:40.485Z,55.81
2022-12-17T19:20:10.129Z,56.21
2022-12-17T19:22:38.556Z,56.20
2022-12-17T19:25:08.967Z,56.09
2022-12-17T19:27:37.296Z,56.00
2022-12-17T19:30:06.750Z,56.02
2022-12-17T19:32:35.156Z,56.38
2022-12-17T19:35:03.635Z,56.43
2022-12-17T19:37:31.993Z,56.04
2022-12-17T19:40:00.367Z,55.94
2022-12-17T19:42:36.707Z,55.75
2022-12-17T19:45:06.350Z,55.80
2022-12-17T19:47:34.809Z,56.18
2022-12-17T19:50:03.202Z,55.73
2022-12-17T19:52:31.705Z,55.75
2022-12-17T19:55:00.039Z,55.81
2022-12-17T19:57:29.896Z,55.79
2022-12-17T19:59:58.253Z,56.04
2022-12-17T20:02:32.328Z,55.97
2022-12-17T20:05:01.243Z,56.31
2022-12-17T20:07:29.886Z,55.92
2022-12-17T20:09:58.173Z,55.65
2022-12-17T20:12:26.674Z,55.95
2022-12-17T20:14:56.711Z,55.77
2022-12-17T20:17:26.193Z,56.11
2022-12-17T20:19:57.941Z,55.68
2022-12-17T20:22:26.432Z,56.29
2022-12-17T20:24:54.755Z,55.66
2022-12-17T20:27:23.613Z,55.65
2022-12-17T20:29:51.921Z,55.62
2022-12-17T20:32:22.047Z,55.60
2022-12-17T20:34:51.699Z,55.65
2022-12-17T20:37:20.492Z,55.46
2022-12-17T20:39:49.190Z,55.51
2022-12-17T20:42:18.400Z,55.36
2022-12-17T20:44:53.102Z,55.79
2022-12-17T20:47:23.308Z,56.05
2022-12-17T20:49:51.626Z,56.05
2022-12-17T20:52:19.930Z,56.12
2022-12-17T20:54:49.495Z,55.77
2022-12-17T20:57:17.988Z,55.47
2022-12-17T20:59:46.649Z,55.85
2022-12-17T21:02:15.021Z,55.71
2022-12-17T21:04:44.969Z,55.74
2022-12-17T21:07:13.605Z,55.79
2022-12-17T21:09:42.179Z,56.00
2022-12-17T21:12:12.525Z,55.79
2022-12-17T21:14:40.934Z,55.67
2022-12-17T21:17:09.811Z,55.71
2022-12-17T21:19:38.435Z,55.45
2022-12-17T21:22:08.903Z,55.41
2022-12-17T21:24:39.045Z,55.78
2022-12-17T21:27:14.342Z,55.81
2022-12-17T21:29:43.238Z,55.51
2022-12-17T21:32:11.641Z,56.02
2022-12-17T21:34:40.076Z,55.73
2022-12-17T21:37:11.365Z,56.11
2022-12-17T21:39:40.016Z,55.62
2022-12-17T21:42:25.566Z,55.79
2022-12-17T21:44:53.945Z,55.89
2022-12-17T21:47:22.432Z,55.82
2022-12-17T21:49:51.081Z,55.56
2022-12-17T21:52:20.816Z,55.66
2022-12-17T21:54:49.498Z,55.93
2022-12-17T21:57:18.299Z,55.69
2022-12-17T21:59:46.657Z,55.42
2022-12-17T22:02:15.215Z,55.71
2022-12-17T22:04:43.659Z,55.94
2022-12-17T22:07:20.402Z,55.69
2022-12-17T22:10:11.732Z,55.36
2022-12-17T22:13:07.366Z,55.76
2022-12-17T22:15:47.216Z,55.65
2022-12-17T22:18:16.960Z,55.90
2022-12-17T22:20:45.308Z,55.47
2022-12-17T22:23:13.732Z,55.69
2022-12-17T22:25:43.878Z,55.94
2022-12-17T22:28:12.469Z,55.16
2022-12-17T22:30:59.231Z,55.57
2022-12-17T22:33:58.177Z,55.25
2022-12-17T22:38:48.929Z,55.18
2022-12-17T22:43:00.096Z,55.75
2022-12-17T22:44:40.754Z,55.65
2022-12-17T22:45:09.988Z,55.65
2022-12-17T22:47:39.664Z,55.64
2022-12-17T22:50:08.557Z,55.21
2022-12-17T22:52:37.519Z,55.33
2022-12-17T22:55:07.555Z,55.37
2022-12-17T22:57:38.625Z,55.19
2022-12-17T23:00:14.294Z,55.42
2022-12-17T23:02:42.754Z,55.53
2022-12-17T23:05:11.373Z,55.35
2022-12-17T23:07:40.094Z,55.27
2022-12-17T23:10:09.002Z,55.30
2022-12-17T23:12:55.141Z,55.45
2022-12-17T23:15:27.590Z,55.11
2022-12-17T23:17:57.890Z,55.10
2022-12-17T23:20:27.552Z,55.57
2022-12-17T23:22:56.064Z,55.21
2022-12-17T23:25:24.924Z,55.80
2022-12-17T23:27:55.705Z,55.42
2022-12-17T23:30:24.232Z,54.93
2022-12-17T23:32:52.825Z,55.62
2022-12-17T23:35:21.914Z,55.11
2022-12-17T23:37:50.864Z,55.90
2022-12-17T23:40:19.381Z,55.78
2022-12-17T23:42:48.078Z,55.20
2022-12-17T23:45:17.917Z,55.12
2022-12-17T23:47:46.226Z,55.56
2022-12-17T23:50:14.612Z,55.29
2022-12-17T23:52:43.097Z,55.04
2022-12-17T23:55:12.238Z,55.56
2022-12-17T23:57:40.708Z,55.03
